createdAt,value
2023-03-13T00:02:23.648Z,95920.59
2023-03-13T00:05:09.747Z,95924.00
2023-03-13T00:07:55.755Z,95933.47
2023-03-13T00:10:42.443Z,95933.78
2023-03-13T00:13:28.937Z,95939.19
2023-03-13T00:16:16.735Z,95914.69
2023-03-13T00:19:05.534Z,95920.25
2023-03-13T00:21:51.577Z,95942.88
2023-03-13T00:24:37.490Z,95941.47
2023-03-13T00:27:23.475Z,95923.25
2023-03-13T00:30:10.857Z,95908.19
2023-03-13T00:32:56.936Z,95928.81
2023-03-13T00:35:42.621Z,95920.44
2023-03-13T00:38:32.095Z,95932.03
2023-03-13T00:41:20.409Z,95902.19
2023-03-13T00:44:07.038Z,95914.34
2023-03-13T00:46:52.995Z,95912.22
2023-03-13T00:49:38.760Z,95920.91
2023-03-13T00:52:28.147Z,95916.28
2023-03-13T00:55:14.106Z,95905.84
2023-03-13T00:58:00.200Z,95906.81
2023-03-13T01:00:46.063Z,95899.97
2023-03-13T01:03:32.013Z,95897.63
2023-03-13T01:06:22.745Z,95902.47
2023-03-13T01:09:11.806Z,95913.06
2023-03-13T01:11:57.870Z,95919.34
2023-03-13T01:14:43.582Z,95914.91
2023-03-13T01:17:30.037Z,95911.00
2023-03-13T01:20:16.041Z,95907.25
2023-03-13T01:23:02.309Z,95890.94
2023-03-13T01:25:48.520Z,95910.44
2023-03-13T01:28:35.355Z,95915.19
2023-03-13T01:31:33.056Z,95906.69
2023-03-13T01:34:19.638Z,95894.00
2023-03-13T01:37:05.421Z,95914.63
2023-03-13T01:39:51.308Z,95921.31
2023-03-13T01:42:57.891Z,95907.38
2023-03-13T01:46:05.961Z,95905.13
2023-03-13T01:49:11.169Z,95909.56
2023-03-13T01:52:20.085Z,95902.63
2023-03-13T01:55:13.847Z,95919.34
2023-03-13T01:58:01.996Z,95927.41
2023-03-13T02:00:48.959Z,95907.31
2023-03-13T02:03:35.782Z,95916.25
2023-03-13T02:06:21.978Z,95914.69
2023-03-13T02:09:12.739Z,95913.75
2023-03-13T02:12:09.925Z,95912.84
2023-03-13T02:14:56.810Z,95904.91
2023-03-13T02:17:42.895Z,95914.81
2023-03-13T02:20:29.011Z,95912.31
2023-03-13T02:23:20.366Z,95900.88
2023-03-13T02:26:06.915Z,95904.75
2023-03-13T02:28:53.691Z,95932.31
2023-03-13T02:31:40.025Z,95937.91
2023-03-13T02:34:29.508Z,95938.41
2023-03-13T02:37:17.806Z,95949.81
2023-03-13T02:40:09.680Z,95933.81
2023-03-13T02:42:56.943Z,95946.63
2023-03-13T02:45:43.457Z,95963.44
2023-03-13T02:48:41.923Z,95978.19
2023-03-13T02:51:35.708Z,95999.19
2023-03-13T02:54:25.003Z,95972.84
2023-03-13T02:57:11.099Z,95971.25
2023-03-13T02:59:57.200Z,95990.38
2023-03-13T03:02:44.278Z,95993.41
2023-03-13T03:05:30.261Z,96002.47
2023-03-13T03:08:16.894Z,96014.56
2023-03-13T03:11:03.057Z,95996.25
2023-03-13T03:13:48.945Z,95980.53
2023-03-13T03:16:36.230Z,95970.34
2023-03-13T03:19:24.707Z,95992.38
2023-03-13T03:22:10.724Z,95973.13
2023-03-13T03:24:56.556Z,96003.69
2023-03-13T03:27:43.383Z,96008.13
2023-03-13T03:30:29.082Z,95996.41
2023-03-13T03:33:14.841Z,96009.66
2023-03-13T03:36:02.238Z,95994.59
2023-03-13T03:38:49.600Z,96001.22
2023-03-13T03:41:38.496Z,96026.75
2023-03-13T03:44:25.255Z,96031.19
2023-03-13T03:47:17.312Z,96040.09
2023-03-13T03:50:07.738Z,96049.56
2023-03-13T03:53:01.757Z,96049.00
2023-03-13T03:55:47.594Z,96051.28
2023-03-13T03:58:33.403Z,96061.94
2023-03-13T04:01:39.834Z,96055.13
2023-03-13T04:04:25.764Z,96058.59
2023-03-13T04:07:18.734Z,96050.75
2023-03-13T04:10:05.271Z,96066.69
2023-03-13T04:12:57.298Z,96083.09
2023-03-13T04:15:43.862Z,96061.31
2023-03-13T04:18:30.926Z,96090.56
2023-03-13T04:21:16.670Z,96063.09
2023-03-13T04:24:07.847Z,96082.66
2023-03-13T04:26:58.572Z,96092.28
2023-03-13T04:29:45.388Z,96100.22
2023-03-13T04:32:58.373Z,96098.88
2023-03-13T04:36:19.738Z,96098.25
2023-03-13T04:39:28.706Z,96096.84
2023-03-13T04:42:29.716Z,96077.28
2023-03-13T04:45:28.190Z,96081.81
2023-03-13T04:48:14.658Z,96089.03
2023-03-13T04:51:23.676Z,96097.56
2023-03-13T04:54:29.874Z,96100.59
2023-03-13T04:57:34.421Z,96099.84
2023-03-13T05:00:34.930Z,96101.66
2023-03-13T05:03:39.888Z,96111.16
2023-03-13T05:06:48.350Z,96093.41
2023-03-13T05:10:00.655Z,96091.72
2023-03-13T05:12:52.800Z,96111.63
2023-03-13T05:15:47.849Z,96093.97
2023-03-13T05:18:55.072Z,96097.47
2023-03-13T05:21:53.997Z,96110.78
2023-03-13T05:25:06.326Z,96117.84
2023-03-13T05:28:10.826Z,96117.97
2023-03-13T05:31:13.730Z,96126.41
2023-03-13T05:34:18.633Z,96105.53
2023-03-13T05:37:27.716Z,96101.66
2023-03-13T05:40:49.256Z,96118.06
2023-03-13T05:44:02.724Z,96119.22
2023-03-13T05:47:07.421Z,96091.03
2023-03-13T05:50:03.475Z,96119.78
2023-03-13T05:53:13.064Z,96084.66
2023-03-13T05:56:10.661Z,96131.75
2023-03-13T05:59:19.568Z,96133.16
2023-03-13T06:02:32.113Z,96128.59
2023-03-13T06:05:19.034Z,96121.63
2023-03-13T06:08:06.021Z,96118.25
2023-03-13T06:10:51.711Z,96150.41
2023-03-13T06:13:37.978Z,96153.59
2023-03-13T06:16:50.690Z,96095.75
2023-03-13T06:19:40.171Z,96156.31
2023-03-13T06:22:26.254Z,96174.06
2023-03-13T06:25:11.893Z,96168.25
2023-03-13T06:27:57.835Z,96174.59
2023-03-13T06:30:43.927Z,96167.53
2023-03-13T06:33:31.101Z,96167.13
2023-03-13T06:36:16.839Z,96146.47
2023-03-13T06:39:03.307Z,96139.53
2023-03-13T06:41:49.246Z,96154.09
2023-03-13T06:44:34.976Z,96158.72
2023-03-13T06:47:20.727Z,96148.31
2023-03-13T06:50:06.985Z,96150.41
2023-03-13T06:52:53.211Z,96148.03
2023-03-13T06:55:39.107Z,96152.69
2023-03-13T06:58:32.085Z,96163.44
2023-03-13T07:01:18.702Z,96154.66
2023-03-13T07:04:04.977Z,96164.56
2023-03-13T07:06:51.910Z,96166.28
2023-03-13T07:09:38.042Z,96160.53
2023-03-13T07:12:24.268Z,96158.34
2023-03-13T07:15:11.024Z,96162.09
2023-03-13T07:17:58.588Z,96161.13
2023-03-13T07:20:44.502Z,96156.81
2023-03-13T07:23:30.333Z,96170.47
2023-03-13T07:26:16.817Z,96161.28
2023-03-13T07:29:02.646Z,96137.41
2023-03-13T07:31:48.329Z,96159.44
2023-03-13T07:34:34.202Z,96156.78
2023-03-13T07:37:20.022Z,96145.88
2023-03-13T07:40:06.359Z,96144.31
2023-03-13T07:42:52.377Z,96155.09
2023-03-13T07:45:38.109Z,96142.78
2023-03-13T07:48:32.177Z,96143.63
2023-03-13T07:51:30.468Z,96160.38
2023-03-13T07:54:22.880Z,96152.69
2023-03-13T07:57:09.145Z,96147.19
2023-03-13T07:59:55.025Z,96135.28
2023-03-13T08:02:41.048Z,96124.28
2023-03-13T08:05:26.728Z,96148.53
2023-03-13T08:08:12.651Z,96146.69
2023-03-13T08:11:01.624Z,96145.28
2023-03-13T08:13:47.901Z,96140.78
2023-03-13T08:16:35.246Z,96150.03
2023-03-13T08:19:21.695Z,96150.25
2023-03-13T08:22:07.549Z,96139.19
2023-03-13T08:24:53.518Z,96142.34
2023-03-13T08:27:39.403Z,96136.03
2023-03-13T08:30:25.133Z,96141.22
2023-03-13T08:33:11.182Z,96114.53
2023-03-13T08:35:57.288Z,96135.84
2023-03-13T08:38:46.023Z,96131.28
2023-03-13T08:41:36.120Z,96121.41
2023-03-13T08:44:21.953Z,96119.03
2023-03-13T08:47:08.380Z,96122.75
2023-03-13T08:49:55.393Z,96097.75
2023-03-13T08:52:44.783Z,96105.03
2023-03-13T08:55:30.766Z,96104.13
2023-03-13T08:58:16.495Z,96081.28
2023-03-13T09:01:05.144Z,96104.75
2023-03-13T09:03:51.626Z,96094.81
2023-03-13T09:06:38.539Z,96097.94
2023-03-13T09:09:24.723Z,96081.19
2023-03-13T09:12:24.521Z,96083.09
2023-03-13T09:15:16.311Z,96070.97
2023-03-13T09:18:02.003Z,96064.22
2023-03-13T09:20:49.061Z,96055.44
2023-03-13T09:23:35.342Z,96058.47
2023-03-13T09:26:23.350Z,96049.34
2023-03-13T09:29:10.339Z,96043.88
2023-03-13T09:31:56.137Z,96047.53
2023-03-13T09:34:41.926Z,96055.56
2023-03-13T09:37:27.739Z,96052.25
2023-03-13T09:40:16.317Z,96023.56
2023-03-13T09:43:02.175Z,96044.94
2023-03-13T09:45:49.972Z,96023.25
2023-03-13T09:48:49.436Z,96037.59
2023-03-13T09:51:38.296Z,96045.63
2023-03-13T09:55:05.718Z,96041.25
2023-03-13T09:58:26.867Z,96021.25
2023-03-13T10:01:13.065Z,96010.06
2023-03-13T10:04:12.945Z,96024.75
2023-03-13T10:06:59.046Z,96017.91
2023-03-13T10:09:44.891Z,96020.41
2023-03-13T10:12:38.226Z,96020.25
2023-03-13T10:15:30.120Z,96016.22
2023-03-13T10:18:21.886Z,95995.06
2023-03-13T10:21:16.394Z,95995.53
2023-03-13T10:24:06.462Z,96000.53
2023-03-13T10:26:52.312Z,96002.84
2023-03-13T10:29:38.841Z,95993.81
2023-03-13T10:32:24.909Z,95988.41
2023-03-13T10:35:15.387Z,95989.41
2023-03-13T10:38:14.107Z,95972.78
2023-03-13T10:41:03.235Z,95954.81
2023-03-13T10:43:54.725Z,95966.81
2023-03-13T10:46:42.269Z,95967.63
2023-03-13T10:49:29.248Z,95970.13
2023-03-13T10:52:45.569Z,95955.06
2023-03-13T10:55:31.668Z,95950.19
2023-03-13T10:58:28.306Z,95939.69
2023-03-13T11:01:29.046Z,95938.75
2023-03-13T11:04:32.992Z,95923.72
2023-03-13T11:07:30.959Z,95932.25
2023-03-13T11:10:32.535Z,95917.25
2023-03-13T11:13:36.532Z,95925.81
2023-03-13T11:16:26.903Z,95927.75
2023-03-13T11:19:21.964Z,95929.97
2023-03-13T11:22:14.287Z,95925.31
2023-03-13T11:25:32.446Z,95928.66
2023-03-13T11:28:30.362Z,95911.03
2023-03-13T11:31:25.155Z,95915.16
2023-03-13T11:34:33.037Z,95892.06
2023-03-13T11:37:21.892Z,95892.53
2023-03-13T11:40:29.119Z,95899.19
2023-03-13T11:43:30.500Z,95880.44
2023-03-13T11:46:35.175Z,95884.06
2023-03-13T11:49:45.597Z,95880.81
2023-03-13T11:52:37.435Z,95879.78
2023-03-13T11:55:41.569Z,95874.91
2023-03-13T11:58:42.958Z,95867.97
2023-03-13T12:01:56.184Z,95864.72
2023-03-13T12:04:49.376Z,95848.34
2023-03-13T12:07:44.603Z,95843.09
2023-03-13T12:10:35.212Z,95834.28
2023-03-13T12:13:29.629Z,95809.94
2023-03-13T12:16:19.997Z,95822.00
2023-03-13T12:19:06.101Z,95822.47
2023-03-13T12:21:54.183Z,95821.00
2023-03-13T12:25:10.806Z,95816.16
2023-03-13T12:28:05.908Z,95802.59
2023-03-13T12:31:30.774Z,95804.75
2023-03-13T12:34:22.577Z,95806.47
2023-03-13T12:37:18.726Z,95787.69
2023-03-13T12:40:35.470Z,95799.66
2023-03-13T12:43:28.981Z,95794.00
2023-03-13T12:46:21.251Z,95800.50
2023-03-13T12:49:39.664Z,95794.91
2023-03-13T12:52:31.706Z,95783.00
2023-03-13T12:55:56.437Z,95791.31
2023-03-13T12:59:03.675Z,95781.03
2023-03-13T13:01:56.506Z,95756.94
2023-03-13T13:04:44.990Z,95768.19
2023-03-13T13:07:32.866Z,95764.13
2023-03-13T13:10:22.985Z,95757.72
2023-03-13T13:13:15.269Z,95769.38
2023-03-13T13:16:12.216Z,95751.16
2023-03-13T13:19:23.494Z,95755.78
2023-03-13T13:22:36.755Z,95763.66
2023-03-13T13:25:33.857Z,95750.25
2023-03-13T13:28:21.906Z,95763.56
2023-03-13T13:31:45.114Z,95761.06
2023-03-13T13:34:31.353Z,95759.41
2023-03-13T13:37:23.629Z,95754.25
2023-03-13T13:40:15.376Z,95770.16
2023-03-13T13:43:05.837Z,95754.38
2023-03-13T13:46:07.244Z,95748.34
2023-03-13T13:49:15.896Z,95758.03
2023-03-13T13:52:01.573Z,95748.38
2023-03-13T13:54:47.302Z,95744.16
2023-03-13T13:57:35.838Z,95721.06
2023-03-13T14:00:25.391Z,95729.38
2023-03-13T14:03:43.483Z,95734.09
2023-03-13T14:06:32.303Z,95725.03
2023-03-13T14:09:28.968Z,95715.75
2023-03-13T14:12:32.618Z,95705.47
2023-03-13T14:15:22.823Z,95712.31
2023-03-13T14:18:29.068Z,95718.03
2023-03-13T14:21:14.793Z,95698.31
2023-03-13T14:24:00.527Z,95693.91
2023-03-13T14:26:46.646Z,95693.25
2023-03-13T14:29:32.654Z,95686.06
2023-03-13T14:32:18.835Z,95687.91
2023-03-13T14:35:06.228Z,95691.28
2023-03-13T14:37:54.493Z,95687.19
2023-03-13T14:40:40.485Z,95685.41
2023-03-13T14:43:36.617Z,95693.16
2023-03-13T14:46:34.627Z,95680.53
2023-03-13T14:49:24.444Z,95683.97
2023-03-13T14:52:22.029Z,95680.22
2023-03-13T14:55:28.535Z,95678.81
2023-03-13T14:58:20.580Z,95675.56
2023-03-13T15:01:30.677Z,95677.22
2023-03-13T15:04:17.085Z,95685.81
2023-03-13T15:07:03.518Z,95686.97
2023-03-13T15:09:50.425Z,95680.72
2023-03-13T15:12:43.115Z,95688.09
2023-03-13T15:15:28.912Z,95687.81
2023-03-13T15:18:26.519Z,95682.53
2023-03-13T15:21:18.313Z,95676.06
2023-03-13T15:24:22.213Z,95678.50
2023-03-13T15:27:15.727Z,95679.63
2023-03-13T15:30:01.481Z,95674.41
2023-03-13T15:32:48.058Z,95689.03
2023-03-13T15:35:34.053Z,95693.00
2023-03-13T15:38:22.663Z,95680.44
2023-03-13T15:41:09.390Z,95668.00
2023-03-13T15:43:57.026Z,95680.13
2023-03-13T15:46:43.144Z,95680.22
2023-03-13T15:49:29.231Z,95685.09
2023-03-13T15:52:22.714Z,95686.13
2023-03-13T15:55:11.194Z,95682.69
2023-03-13T15:57:57.344Z,95700.72
2023-03-13T16:00:44.076Z,95697.66
2023-03-13T16:03:30.469Z,95705.09
2023-03-13T16:06:28.188Z,95703.94
2023-03-13T16:09:14.159Z,95694.69
2023-03-13T16:12:00.304Z,95693.19
2023-03-13T16:14:48.663Z,95703.09
2023-03-13T16:17:35.083Z,95707.66
2023-03-13T16:20:23.641Z,95708.53
2023-03-13T16:23:09.594Z,95700.13
2023-03-13T16:25:55.320Z,95697.63
2023-03-13T16:28:41.105Z,95706.13
2023-03-13T16:31:29.916Z,95712.47
2023-03-13T16:34:15.781Z,95684.47
2023-03-13T16:37:01.596Z,95704.25
2023-03-13T16:39:48.414Z,95706.84
2023-03-13T16:42:34.242Z,95707.16
2023-03-13T16:45:20.181Z,95701.44
2023-03-13T16:48:06.149Z,95719.28
2023-03-13T16:50:52.165Z,95739.25
2023-03-13T16:53:38.188Z,95722.69
2023-03-13T16:56:33.915Z,95729.97
2023-03-13T16:59:20.056Z,95735.38
2023-03-13T17:02:14.058Z,95717.59
2023-03-13T17:04:59.770Z,95718.41
2023-03-13T17:07:48.037Z,95736.66
2023-03-13T17:10:34.107Z,95740.16
2023-03-13T17:13:20.551Z,95733.09
2023-03-13T17:16:14.109Z,95719.59
2023-03-13T17:19:00.364Z,95724.56
2023-03-13T17:21:46.217Z,95726.81
2023-03-13T17:24:32.372Z,95736.13
2023-03-13T17:27:18.555Z,95734.03
2023-03-13T17:30:19.049Z,95732.31
2023-03-13T17:33:05.144Z,95748.44
2023-03-13T17:35:51.041Z,95742.78
2023-03-13T17:38:36.781Z,95754.56
2023-03-13T17:41:25.992Z,95733.00
2023-03-13T17:44:12.050Z,95742.47
2023-03-13T17:46:58.023Z,95740.97
2023-03-13T17:49:44.183Z,95730.94
2023-03-13T17:52:30.492Z,95738.34
2023-03-13T17:55:16.639Z,95750.31
2023-03-13T17:58:02.622Z,95729.97
2023-03-13T18:00:48.845Z,95723.69
2023-03-13T18:03:34.802Z,95719.63
2023-03-13T18:06:38.754Z,95752.50
2023-03-13T18:09:25.342Z,95753.66
2023-03-13T18:12:11.681Z,95759.81
2023-03-13T18:14:57.689Z,95751.25
2023-03-13T18:17:43.844Z,95734.59
2023-03-13T18:20:31.562Z,95742.88
2023-03-13T18:23:17.720Z,95713.97
2023-03-13T18:26:20.601Z,95735.44
2023-03-13T18:29:18.000Z,95739.94
2023-03-13T18:32:03.723Z,95752.75
2023-03-13T18:34:49.482Z,95736.09
2023-03-13T18:37:35.826Z,95762.97
2023-03-13T18:40:24.863Z,95750.69
2023-03-13T18:43:11.001Z,95745.19
2023-03-13T18:45:57.164Z,95770.56
2023-03-13T18:48:43.461Z,95768.63
2023-03-13T18:51:30.852Z,95760.34
2023-03-13T18:54:17.146Z,95755.91
2023-03-13T18:57:03.077Z,95765.09
2023-03-13T18:59:48.990Z,95755.75
2023-03-13T19:02:34.952Z,95747.81
2023-03-13T19:05:20.749Z,95758.53
2023-03-13T19:08:06.524Z,95735.84
2023-03-13T19:10:52.524Z,95749.84
2023-03-13T19:13:38.629Z,95760.75
2023-03-13T19:16:27.543Z,95760.84
2023-03-13T19:19:23.618Z,95746.16
2023-03-13T19:22:13.576Z,95774.88
2023-03-13T19:24:59.309Z,95766.91
2023-03-13T19:27:45.876Z,95741.63
2023-03-13T19:30:31.949Z,95768.66
2023-03-13T19:33:17.681Z,95766.06
2023-03-13T19:36:03.756Z,95770.59
2023-03-13T19:38:49.932Z,95770.13
2023-03-13T19:41:36.204Z,95754.53
2023-03-13T19:44:22.438Z,95755.06
2023-03-13T19:47:13.682Z,95746.00
2023-03-13T19:50:00.446Z,95761.19
2023-03-13T19:52:46.672Z,95759.41
2023-03-13T19:55:32.733Z,95764.94
2023-03-13T19:58:18.769Z,95741.16
2023-03-13T20:01:15.121Z,95753.50
2023-03-13T20:04:03.551Z,95766.38
2023-03-13T20:06:49.525Z,95751.91
2023-03-13T20:09:36.323Z,95745.63
2023-03-13T20:12:22.719Z,95755.00
2023-03-13T20:15:09.202Z,95754.31
2023-03-13T20:17:55.384Z,95758.06
2023-03-13T20:20:41.249Z,95764.59
2023-03-13T20:23:27.016Z,95738.50
2023-03-13T20:26:15.580Z,95751.63
2023-03-13T20:29:01.575Z,95738.69
2023-03-13T20:31:47.436Z,95739.50
2023-03-13T20:34:34.010Z,95742.53
2023-03-13T20:37:20.833Z,95741.75
2023-03-13T20:40:08.818Z,95741.44
2023-03-13T20:42:54.599Z,95740.97
2023-03-13T20:45:40.431Z,95755.47
2023-03-13T20:48:26.650Z,95751.97
2023-03-13T20:51:13.251Z,95747.66
2023-03-13T20:53:59.425Z,95727.53
2023-03-13T20:56:45.368Z,95730.72
2023-03-13T20:59:31.899Z,95745.19
2023-03-13T21:02:18.269Z,95726.41
2023-03-13T21:05:04.035Z,95749.22
2023-03-13T21:07:50.213Z,95746.75
2023-03-13T21:10:40.863Z,95743.63
2023-03-13T21:13:26.989Z,95725.16
2023-03-13T21:16:13.958Z,95734.16
2023-03-13T21:18:59.961Z,95735.63
2023-03-13T21:21:46.875Z,95746.97
2023-03-13T21:24:33.759Z,95748.81
2023-03-13T21:27:19.760Z,95728.19
2023-03-13T21:30:07.564Z,95731.38
2023-03-13T21:32:54.550Z,95746.34
2023-03-13T21:35:40.720Z,95737.34
2023-03-13T21:38:26.523Z,95732.19
2023-03-13T21:41:18.094Z,95737.69
2023-03-13T21:44:04.233Z,95740.69
2023-03-13T21:46:51.771Z,95731.06
2023-03-13T21:49:37.700Z,95729.22
2023-03-13T21:52:23.619Z,95732.06
2023-03-13T21:55:12.810Z,95728.53
2023-03-13T21:57:58.894Z,95707.22
2023-03-13T22:00:44.984Z,95710.41
2023-03-13T22:03:31.951Z,95726.91
2023-03-13T22:06:20.043Z,95718.22
2023-03-13T22:09:07.757Z,95704.88
2023-03-13T22:11:53.698Z,95686.06
2023-03-13T22:14:39.387Z,95702.41
2023-03-13T22:17:25.243Z,95714.22
2023-03-13T22:20:11.929Z,95723.56
2023-03-13T22:22:57.908Z,95689.75
2023-03-13T22:25:43.978Z,95714.22
2023-03-13T22:28:29.822Z,95700.56
2023-03-13T22:31:15.584Z,95714.88
2023-03-13T22:34:01.491Z,95705.22
2023-03-13T22:36:47.369Z,95680.59
2023-03-13T22:39:33.229Z,95681.09
2023-03-13T22:42:19.052Z,95699.06
2023-03-13T22:45:05.157Z,95693.88
2023-03-13T22:47:51.235Z,95678.25
2023-03-13T22:50:37.329Z,95688.56
2023-03-13T22:53:22.995Z,95689.22
2023-03-13T22:56:10.113Z,95687.03
2023-03-13T22:58:56.211Z,95682.91
2023-03-13T23:01:41.958Z,95682.06
2023-03-13T23:04:27.968Z,95669.41
2023-03-13T23:07:13.716Z,95658.41
2023-03-13T23:09:59.620Z,95680.53
2023-03-13T23:12:45.463Z,95662.56
2023-03-13T23:15:43.026Z,95649.72
2023-03-13T23:18:37.910Z,95657.69
2023-03-13T23:21:24.072Z,95676.69
2023-03-13T23:24:09.757Z,95656.00
2023-03-13T23:26:55.837Z,95663.34
2023-03-13T23:29:41.693Z,95662.50
2023-03-13T23:32:28.424Z,95666.16
2023-03-13T23:35:16.991Z,95673.47
2023-03-13T23:38:02.912Z,95672.97
2023-03-13T23:40:48.761Z,95654.81
2023-03-13T23:43:35.232Z,95646.13
2023-03-13T23:46:23.405Z,95662.78
2023-03-13T23:49:09.156Z,95651.63
2023-03-13T23:51:55.044Z,95654.75
2023-03-13T23:54:41.050Z,95663.44
2023-03-13T23:57:26.878Z,95638.41
